Main page
METAR-TAF:

METAR-TAF

Airports :

Bou Saada Airport

Bou Saâda, Algeria

latitude: 35-20N, longitude: 004-12E, elevation: 461 m

Current weather observation

The report was made 46 minutes ago, at 16:00 UTC
Wind 13 kt from the West
Temperature 19°C
Humidity 56%
Pressure 1010 hPa
Visibility 10 km or more
Few clouds at a height of 3000 ft

METAR: DAAD 201600Z 27013KT 9999 FEW030 19/10 Q1010

Time: 17:46 (16:46 UTC)

Forecast

The report was made 2 hours and 46 minutes ago, at 14:00 UTC
Forecast valid from 20 at 15 UTC to 20 at 24 UTC
Wind 12 kt from the West
Visibility 10 km or more
Scattered clouds at a height of 3000 ft
Probability 30% :
Temporary
from 20 at 15 UTC to 20 at 18 UTC
Wind 15 kt from the West/Northwest with gusts up to 25 kt
Few clouds at a height of 2600 ft, Towering cumulus.

TAF: DAAD 201400Z 2015/2024 28012KT 9999 SCT030 PROB30 TEMPO 2015/2018 29015G25KT FEW026TCU

Weather observations and forecasts of more than 4000 airports (METAR and TAF reports).

The available stations are represented by yellow and red dots on the map.

Hover mouse over dot to see the name of the station.

Then click to see weather observations and forecasts.

To change the map : click on the green buttons with a black cross to zoom in, on the green button with a dash to zoom out, or on the green arrows for adjacent maps.


METAR-TAF: